Pilot Hill, California
Current Conditions -  °F | °C
As of 4:15 PM on Sunday 25 Jan 2015 (Local Time) from KAUN Reporting Station
Clear Clear  
Wind Chill: 17°   Ceiling: Unl
Heat Index: 17°   Visibility: 10mi
Dew Point:   Wind: 3mph
Humidity: 59%   Direction: 190°S
Pressure: 30.03"   Gusts: NA
Location:  38.83°N, 121.02°W
Report Text: KAUN 260015Z AUTO 19003KT 10SM CLR 17/09 A3003 RMK AO1
Loading
Personal Weather Stations






























Interactive Weather Map New forecast layout! Learn more

10-Day Weather Forecast

Advertisements
Track Severe Weather on mobile